createdAt,value
2022-08-21T00:18:20.373Z,15.40
2022-08-21T00:40:08.564Z,12.00
2022-08-21T01:01:54.715Z,11.70
2022-08-21T01:23:42.710Z,10.20
2022-08-21T01:45:28.624Z,8.80
2022-08-21T02:07:14.356Z,8.30
2022-08-21T02:29:00.289Z,6.80
2022-08-21T02:50:50.674Z,6.20
2022-08-21T03:12:37.271Z,6.70
2022-08-21T03:34:23.562Z,6.30
2022-08-21T03:56:10.312Z,4.60
2022-08-21T04:17:56.724Z,7.40
2022-08-21T04:39:42.551Z,6.10
2022-08-21T05:01:31.354Z,5.00
2022-08-21T05:23:18.302Z,5.50
2022-08-21T05:45:04.319Z,4.10
2022-08-21T06:06:50.284Z,7.70
2022-08-21T06:28:36.968Z,5.80
2022-08-21T06:50:23.008Z,6.30
2022-08-21T07:12:10.550Z,9.40
2022-08-21T07:33:56.719Z,9.20
2022-08-21T07:55:42.676Z,9.00
2022-08-21T08:17:29.583Z,9.10
2022-08-21T08:39:27.106Z,6.90
2022-08-21T09:01:20.929Z,9.80
2022-08-21T09:23:20.696Z,11.40
2022-08-21T09:45:18.905Z,7.00
2022-08-21T10:07:13.635Z,8.60
2022-08-21T10:29:11.324Z,8.60
2022-08-21T10:51:02.306Z,8.70
2022-08-21T11:12:54.219Z,8.90
2022-08-21T11:34:58.531Z,11.20
2022-08-21T12:18:34.771Z,10.10
2022-08-21T12:40:27.592Z,10.30
2022-08-21T13:02:20.993Z,8.40
2022-08-21T13:46:30.447Z,9.50
2022-08-21T14:08:34.327Z,8.00
2022-08-21T14:30:28.019Z,8.10
2022-08-21T14:52:15.110Z,8.00
2022-08-21T15:14:05.439Z,11.20
2022-08-21T15:35:51.423Z,13.50
2022-08-21T15:57:38.923Z,12.40
2022-08-21T16:19:24.836Z,8.70
2022-08-21T16:41:13.234Z,8.80
2022-08-21T17:03:00.258Z,9.50
2022-08-21T17:24:46.269Z,7.40
2022-08-21T17:46:32.199Z,7.00
2022-08-21T18:08:18.710Z,9.10
2022-08-21T18:30:05.664Z,7.30
2022-08-21T18:51:51.580Z,7.70
2022-08-21T19:13:39.241Z,6.90
2022-08-21T19:35:25.215Z,7.20
2022-08-21T19:57:12.573Z,7.80
2022-08-21T20:18:58.350Z,8.20
2022-08-21T20:40:45.552Z,12.10
2022-08-21T21:02:41.343Z,8.00
2022-08-21T21:24:35.475Z,7.60
2022-08-21T21:46:34.219Z,8.80
2022-08-21T22:08:33.833Z,9.50
2022-08-21T22:30:40.619Z,9.40
2022-08-21T22:52:30.104Z,8.80
2022-08-21T23:14:16.837Z,7.60
2022-08-21T23:36:31.807Z,10.00
2022-08-21T23:58:35.906Z,8.90
